Burlington, Maine
Current Conditions -  °F | °C
As of 12:53 AM on Wednesday 26 Nov 2014 (Local Time) from KMLT Reporting Station
Overcast Overcast  
Wind Chill:   Ceiling: 6000
Heat Index:   Visibility: 10mi
Dew Point: -3°   Wind: 9mph
Humidity: 49%   Direction: 270°W
Pressure: 30.01"   Gusts: NA
Location:  45.21°N, 68.43°W
Report Text: KMLT 260553Z AUTO 27008KT 10SM OVC060 07/M03 A3001 RMK AO2 SLP169 T00671033 10078 20039 52024
Loading
Personal Weather Stations






























Interactive Weather Map New forecast layout! Learn more

10-Day Weather Forecast

Advertisements
Track Severe Weather on mobile